Time;durP1;ratioP1;P1;durP2;ratioP2;P2;SDS_P1;SDS_P2;PMS_P1;PMS_P2;Temp;Humidity;BMP_temperature;BMP_pressure;BME280_temperature;BME280_humidity;BME280_pressure;Samples;Min_cycle;Max_cycle;Signal;HPM_P1;HPM_P2
2022/08/05 00:00:15;;;;;;;9.50;2.65;;;;;;;26.56;43.68;96312.50;4915843;29;20052;-79
2022/08/05 00:02:43;;;;;;;2.72;2.53;;;;;;;26.55;43.55;96318.94;4916585;29;20056;-79
2022/08/05 00:05:18;;;;;;;3.25;2.50;;;;;;;26.55;43.74;96315.47;4916335;29;20423;-79
2022/08/05 00:08:06;;;;;;;4.15;2.20;;;;;;;26.56;44.00;96317.84;4916826;29;20144;-79
2022/08/05 00:10:53;;;;;;;2.22;2.10;;;;;;;26.57;44.69;96314.13;4916183;29;20067;-79
2022/08/05 00:13:21;;;;;;;2.33;2.05;;;;;;;26.59;47.20;96314.63;4916592;29;20102;-80
2022/08/05 00:16:08;;;;;;;3.17;2.28;;;;;;;26.61;45.85;96301.75;4916491;29;20056;-80
2022/08/05 00:18:39;;;;;;;2.50;2.30;;;;;;;26.58;44.40;96299.63;4916985;29;20109;-81
2022/08/05 00:21:08;;;;;;;2.80;2.60;;;;;;;26.55;43.89;96300.22;4916381;29;20059;-78
2022/08/05 00:23:36;;;;;;;2.90;2.38;;;;;;;26.52;43.89;96306.94;4916148;29;20491;-81
2022/08/05 00:26:20;;;;;;;3.45;2.60;;;;;;;26.49;43.91;96306.72;4916018;29;20185;-80
2022/08/05 00:28:49;;;;;;;3.22;2.92;;;;;;;26.44;44.02;96298.78;4923628;29;20111;-79
2022/08/05 00:31:18;;;;;;;3.75;2.40;;;;;;;26.41;44.20;96304.69;4935862;29;20527;-81
2022/08/05 00:34:06;;;;;;;4.20;2.70;;;;;;;26.37;44.29;96299.16;4935443;29;20313;-78
2022/08/05 00:36:54;;;;;;;2.92;2.70;;;;;;;26.36;44.10;96307.44;4927098;29;20056;-80
2022/08/05 00:39:41;;;;;;;5.47;3.10;;;;;;;26.33;44.34;96298.13;4921191;29;20422;-81
2022/08/05 00:42:31;;;;;;;3.05;2.70;;;;;;;26.29;44.21;96292.56;4919899;29;20462;-80
2022/08/05 00:45:00;;;;;;;3.25;2.65;;;;;;;26.28;44.11;96292.84;4920471;29;20134;-80
2022/08/05 00:47:29;;;;;;;3.60;2.22;;;;;;;26.24;44.50;96292.66;4919367;29;20075;-80
2022/08/05 00:50:16;;;;;;;2.40;2.20;;;;;;;26.25;44.22;96288.88;4919344;29;20070;-80
2022/08/05 00:52:44;;;;;;;2.88;2.38;;;;;;;26.25;44.59;96291.53;4918951;29;20056;-80
2022/08/05 00:55:13;;;;;;;2.90;2.08;;;;;;;26.25;44.27;96290.75;4920528;29;20052;-81
2022/08/05 00:57:41;;;;;;;2.63;2.40;;;;;;;26.23;44.21;96292.94;4922266;29;20071;-80
2022/08/05 01:00:26;;;;;;;3.90;2.30;;;;;;;26.19;44.66;96292.69;4920552;29;20059;-81
2022/08/05 01:02:56;;;;;;;2.80;2.60;;;;;;;26.14;44.70;96300.81;4919961;29;20052;-81
2022/08/05 01:05:27;;;;;;;4.43;2.65;;;;;;;26.12;44.66;96296.84;4919323;29;20059;-80
2022/08/05 01:07:55;;;;;;;4.63;2.95;;;;;;;26.07;45.08;96292.34;4918986;29;20052;-80
2022/08/05 01:10:48;;;;;;;4.45;2.67;;;;;;;26.04;44.42;96295.59;4919239;29;20056;-80
2022/08/05 01:13:24;;;;;;;3.13;2.50;;;;;;;26.01;44.52;96296.97;4919053;29;20052;-80
2022/08/05 01:16:19;;;;;;;2.78;2.50;;;;;;;25.98;44.62;96291.41;4918890;29;20060;-80
2022/08/05 01:18:59;;;;;;;3.58;2.50;;;;;;;25.96;44.49;96298.94;4918650;29;20070;-80
2022/08/05 01:21:51;;;;;;;2.80;2.60;;;;;;;25.89;44.86;96289.38;4918505;29;20159;-80
2022/08/05 01:24:35;;;;;;;2.85;2.63;;;;;;;25.82;45.16;96294.25;4918270;29;20044;-80
2022/08/05 01:27:13;;;;;;;3.60;2.75;;;;;;;25.78;45.06;96292.44;4918351;29;20505;-80
2022/08/05 01:29:50;;;;;;;2.90;2.50;;;;;;;25.77;45.35;96293.53;4918475;29;20051;-80
2022/08/05 01:32:23;;;;;;;2.58;2.33;;;;;;;25.76;45.52;96295.41;4918486;29;20055;-80
2022/08/05 01:34:58;;;;;;;2.65;2.45;;;;;;;25.73;45.53;96295.97;4916950;29;20678;-80
2022/08/05 01:37:45;;;;;;;4.22;2.97;;;;;;;25.68;45.43;96298.69;4917247;29;20100;-80
2022/08/05 01:40:15;;;;;;;6.00;3.35;;;;;;;25.65;46.39;96294.72;4917893;29;20059;-80
2022/08/05 01:42:45;;;;;;;5.00;3.40;;;;;;;25.64;45.69;96303.81;4918537;29;20127;-80
2022/08/05 01:45:16;;;;;;;3.25;2.30;;;;;;;25.62;45.91;96300.63;4918879;29;20134;-80
2022/08/05 01:47:46;;;;;;;3.35;2.60;;;;;;;25.63;45.62;96312.91;4933739;29;20481;-79
2022/08/05 01:50:18;;;;;;;3.22;2.75;;;;;;;25.61;45.79;96311.63;4942118;29;20060;-80
2022/08/05 01:52:59;;;;;;;4.10;2.85;;;;;;;25.58;45.78;96314.84;4925114;29;20479;-80
2022/08/05 01:55:30;;;;;;;2.83;2.60;;;;;;;25.60;46.20;96318.03;4919532;29;20115;-80
2022/08/05 01:58:05;;;;;;;3.42;2.67;;;;;;;25.61;46.35;96322.28;4918197;29;20063;-80
2022/08/05 02:00:57;;;;;;;3.10;2.80;;;;;;;25.60;45.90;96323.38;4917414;29;20507;-80
2022/08/05 02:03:31;;;;;;;3.15;2.85;;;;;;;25.55;46.06;96321.56;4918263;29;20138;-80
2022/08/05 02:06:02;;;;;;;3.75;2.78;;;;;;;25.49;45.88;96328.84;4917588;29;20048;-80
2022/08/05 02:08:50;;;;;;;5.78;2.70;;;;;;;25.41;46.03;96326.78;4917653;29;20522;-80
2022/08/05 02:11:26;;;;;;;3.10;2.90;;;;;;;25.35;46.04;96338.59;4917330;29;20064;-79
2022/08/05 02:14:05;;;;;;;3.10;2.80;;;;;;;25.31;46.33;96345.56;4917733;29;20056;-79
2022/08/05 02:16:41;;;;;;;3.22;2.92;;;;;;;25.35;50.08;96364.50;4917610;29;20060;-80
2022/08/05 02:19:18;;;;;;;3.72;2.60;;;;;;;25.42;51.38;96364.94;4917558;29;20059;-80
2022/08/05 02:21:54;;;;;;;5.72;3.25;;;;;;;25.47;50.27;96363.03;4917041;29;20052;-80
2022/08/05 02:24:28;;;;;;;3.13;2.88;;;;;;;25.49;48.77;96355.53;4917359;29;20052;-80
2022/08/05 02:26:59;;;;;;;4.03;2.97;;;;;;;25.54;49.95;96356.53;4917288;29;20051;-80
2022/08/05 02:29:38;;;;;;;4.30;2.95;;;;;;;25.55;48.87;96360.81;4917743;29;20056;-80
2022/08/05 02:32:29;;;;;;;3.25;2.55;;;;;;;25.53;47.52;96354.97;4916503;29;20048;-79
2022/08/05 02:34:58;;;;;;;;;;;;;;;25.49;47.08;96355.53;4917625;29;20060;-80
2022/08/05 02:37:42;;;;;;;3.17;2.88;;;;;;;25.39;46.52;96369.00;4917615;29;19923;-78
2022/08/05 02:40:22;;;;;;;4.53;2.90;;;;;;;25.28;46.67;96354.16;4915828;29;20052;-77
2022/08/05 02:42:53;;;;;;;2.85;2.55;;;;;;;25.21;46.67;96367.00;4928234;29;20055;-77
2022/08/05 02:45:22;;;;;;;4.68;3.00;;;;;;;25.15;46.86;96358.25;4935944;29;20070;-77
2022/08/05 02:47:54;;;;;;;2.83;2.60;;;;;;;25.08;46.99;96373.78;4897739;29;20117;-78
2022/08/05 02:50:41;;;;;;;3.40;2.20;;;;;;;25.06;47.73;96379.41;4897222;29;20503;-77
2022/08/05 02:53:12;;;;;;;2.72;2.42;;;;;;;25.13;48.51;96389.75;4904888;29;20415;-78
2022/08/05 02:55:46;;;;;;;3.95;2.85;;;;;;;25.20;48.63;96398.25;4916186;29;20143;-77
2022/08/05 02:58:26;;;;;;;3.92;2.75;;;;;;;25.25;49.39;96402.75;4916124;29;20076;-77
2022/08/05 03:00:58;;;;;;;3.63;2.72;;;;;;;25.31;50.50;96390.16;4915856;29;20071;-77
2022/08/05 03:03:29;;;;;;;2.42;2.22;;;;;;;25.34;49.23;96394.94;4915656;29;20489;-77
2022/08/05 03:06:17;;;;;;;5.50;3.10;;;;;;;25.34;50.13;96405.59;4916000;29;20052;-77
2022/08/05 03:09:05;;;;;;;3.47;2.70;;;;;;;25.36;51.56;96403.47;4915812;29;20056;-78
2022/08/05 03:11:34;;;;;;;3.40;2.83;;;;;;;25.39;51.61;96397.56;4915908;29;20143;-76
2022/08/05 03:14:21;;;;;;;4.78;3.05;;;;;;;25.32;47.96;96395.22;4915701;29;20052;-77
2022/08/05 03:16:49;;;;;;;4.70;2.42;;;;;;;25.23;47.78;96388.88;4916166;29;20142;-77
2022/08/05 03:19:21;;;;;;;4.72;3.05;;;;;;;25.14;47.68;96391.31;4915461;29;20494;-76
2022/08/05 03:22:02;;;;;;;3.33;2.95;;;;;;;25.09;47.98;96391.38;4915411;29;20056;-77
2022/08/05 03:24:43;;;;;;;4.18;3.15;;;;;;;25.07;47.95;96391.66;4901311;29;20052;-78
2022/08/05 03:27:14;;;;;;;4.63;2.83;;;;;;;25.05;47.96;96387.69;4924144;29;20048;-77
2022/08/05 03:29:42;;;;;;;5.55;2.97;;;;;;;24.98;47.76;96382.66;4917820;29;20119;-79
2022/08/05 03:32:30;;;;;;;3.00;2.30;;;;;;;24.93;47.90;96379.25;4915613;29;20052;-77
2022/08/05 03:34:59;;;;;;;4.13;2.40;;;;;;;24.87;47.94;96395.28;4915623;29;20072;-77
2022/08/05 03:37:27;;;;;;;3.03;2.50;;;;;;;24.83;48.24;96393.44;4918013;29;20059;-77
2022/08/05 03:39:56;;;;;;;6.50;2.88;;;;;;;24.80;48.39;96378.00;4919162;29;20139;-79
2022/08/05 03:42:27;;;;;;;4.07;3.08;;;;;;;24.75;48.50;96372.69;4918729;29;20521;-78
2022/08/05 03:44:59;;;;;;;3.75;3.03;;;;;;;24.72;48.70;96384.72;4916178;29;20515;-78
2022/08/05 03:47:47;;;;;;;5.88;2.80;;;;;;;24.67;48.77;96382.09;4915292;29;20067;-78
2022/08/05 03:50:17;;;;;;;5.60;2.90;;;;;;;24.62;48.98;96390.94;4900701;29;20576;-76
2022/08/05 03:52:50;;;;;;;5.80;2.40;;;;;;;24.58;49.30;96379.22;4915789;29;20098;-77
2022/08/05 03:55:42;;;;;;;5.80;2.95;;;;;;;24.54;49.34;96391.50;4899354;29;20169;-78
2022/08/05 03:58:32;;;;;;;2.85;2.58;;;;;;;24.58;49.63;96384.56;4915230;29;20056;-77
2022/08/05 04:01:02;;;;;;;5.75;2.70;;;;;;;24.66;50.69;96391.97;4915703;29;20626;-78
2022/08/05 04:03:34;;;;;;;5.22;3.20;;;;;;;24.75;50.38;96394.03;4919436;29;20051;-79
2022/08/05 04:06:06;;;;;;;3.78;2.85;;;;;;;24.80;50.77;96402.03;4917986;29;20522;-78
2022/08/05 04:08:35;;;;;;;3.25;2.53;;;;;;;24.86;51.00;96416.91;4917609;29;20055;-78
2022/08/05 04:11:06;;;;;;;4.75;3.47;;;;;;;24.91;50.16;96418.75;4923368;29;20048;-79
2022/08/05 04:13:38;;;;;;;4.43;3.20;;;;;;;24.96;50.67;96427.50;4928792;29;20143;-78
2022/08/05 04:16:20;;;;;;;4.43;3.83;;;;;;;24.97;49.94;96428.28;4919068;29;20052;-79
2022/08/05 04:18:52;;;;;;;6.35;4.00;;;;;;;24.96;49.97;96437.38;4919215;29;20146;-79
2022/08/05 04:21:22;;;;;;;6.57;3.30;;;;;;;24.94;49.75;96424.31;4922868;29;20051;-80
2022/08/05 04:24:10;;;;;;;6.97;3.55;;;;;;;24.93;49.63;96422.72;4938344;23;20052;-75
2022/08/05 04:26:49;;;;;;;2.92;2.63;;;;;;;24.92;49.49;96431.00;4918641;29;20044;-75
2022/08/05 04:29:16;;;;;;;4.15;2.80;;;;;;;24.92;49.54;96442.47;4918696;29;20431;-75
2022/08/05 04:31:44;;;;;;;2.90;2.70;;;;;;;24.92;48.93;96445.13;4918766;29;20499;-75
2022/08/05 04:34:15;;;;;;;4.05;2.25;;;;;;;24.95;48.90;96451.78;4917905;29;20056;-74
2022/08/05 04:37:01;;;;;;;3.63;3.10;;;;;;;24.97;48.82;96461.13;4915345;29;20076;-77
2022/08/05 04:39:29;;;;;;;4.90;2.97;;;;;;;24.99;48.70;96458.16;4912647;29;20511;-74
2022/08/05 04:45:04;;;;;;;3.33;3.03;;;;;;;24.95;48.02;96465.94;5489021;23;20039;-81
2022/08/05 04:48:21;;;;;;;5.18;3.03;;;;;;;24.96;48.89;96456.06;4963106;29;20063;-80
2022/08/05 04:51:32;;;;;;;5.25;2.67;;;;;;;24.97;48.26;96450.47;4961392;29;20055;-79
2022/08/05 04:54:40;;;;;;;5.53;3.05;;;;;;;24.97;48.00;96449.63;4947787;29;20036;-81
2022/08/05 04:57:26;;;;;;;2.95;2.67;;;;;;;24.91;47.96;96448.91;4935483;23;20051;-76
2022/08/05 04:59:56;;;;;;;6.85;3.40;;;;;;;24.87;48.39;96445.19;4918316;29;20055;-76
2022/08/05 05:02:25;;;;;;;6.68;3.50;;;;;;;24.82;48.95;96455.91;4918655;29;20108;-76
2022/08/05 05:05:08;;;;;;;5.75;3.22;;;;;;;24.77;48.71;96455.91;4918641;29;20116;-76
2022/08/05 05:07:56;;;;;;;3.58;3.15;;;;;;;24.76;49.05;96457.00;4918528;29;20426;-76
2022/08/05 05:10:30;;;;;;;4.78;3.40;;;;;;;24.78;48.90;96462.84;4918046;29;20063;-76
2022/08/05 05:13:00;;;;;;;8.07;3.90;;;;;;;24.82;49.38;96462.03;4918310;29;20506;-76
2022/08/05 05:15:30;;;;;;;7.30;4.40;;;;;;;24.86;49.43;96462.25;4918504;29;20185;-76
2022/08/05 05:18:18;;;;;;;8.52;3.53;;;;;;;24.88;48.91;96466.25;4918148;29;20502;-76
2022/08/05 05:20:55;;;;;;;4.95;3.08;;;;;;;24.93;49.55;96475.31;4917182;29;20067;-76
2022/08/05 05:23:24;;;;;;;5.63;3.05;;;;;;;24.97;51.34;96477.16;4918277;29;20059;-76
2022/08/05 05:25:53;;;;;;;3.95;3.08;;;;;;;25.04;52.18;96501.63;4918147;29;20134;-76
2022/08/05 05:28:22;;;;;;;10.07;3.42;;;;;;;25.05;49.97;96511.22;4917963;29;20054;-76
2022/08/05 05:30:51;;;;;;;5.05;3.25;;;;;;;25.08;49.75;96533.91;4917916;29;20052;-76
2022/08/05 05:33:18;;;;;;;7.50;3.17;;;;;;;25.07;49.89;96538.44;4917912;29;20086;-76
2022/08/05 05:35:49;;;;;;;3.00;2.80;;;;;;;25.06;48.97;96534.19;4918302;29;20115;-77
2022/08/05 05:38:18;;;;;;;4.03;3.10;;;;;;;25.04;49.69;96533.66;4918195;29;20055;-76
2022/08/05 05:40:55;;;;;;;4.50;3.83;;;;;;;25.05;49.47;96548.59;4917619;29;20129;-76
2022/08/05 05:43:23;;;;;;;6.38;2.78;;;;;;;25.05;49.48;96559.25;4918917;29;20048;-77
2022/08/05 05:46:11;;;;;;;6.78;3.00;;;;;;;25.09;50.30;96559.53;4939091;29;20102;-76
2022/08/05 05:48:44;;;;;;;8.55;3.22;;;;;;;25.12;49.43;96574.19;4937800;29;20090;-76
2022/08/05 05:51:19;;;;;;;4.30;3.55;;;;;;;25.12;49.30;96579.53;4919384;29;20063;-78
2022/08/05 05:53:47;;;;;;;5.72;2.80;;;;;;;25.12;49.33;96600.88;4918321;29;20135;-76
2022/08/05 05:56:29;;;;;;;6.78;3.13;;;;;;;25.10;49.37;96609.16;4917330;29;20107;-76
2022/08/05 05:59:00;;;;;;;4.38;3.28;;;;;;;25.09;49.39;96618.25;4917882;29;20594;-77
2022/08/05 06:01:32;;;;;;;7.45;2.80;;;;;;;25.07;49.34;96631.84;4917754;29;20453;-76
2022/08/05 06:04:05;;;;;;;9.73;2.63;;;;;;;25.08;49.56;96633.47;4919641;29;20060;-76
2022/08/05 06:06:33;;;;;;;5.35;2.92;;;;;;;25.06;49.57;96640.94;4918687;29;20138;-76
2022/08/05 06:09:02;;;;;;;5.82;3.22;;;;;;;25.07;49.70;96653.19;4918072;29;20052;-76
2022/08/05 06:11:32;;;;;;;4.63;2.78;;;;;;;25.08;49.18;96662.03;4917486;29;20487;-77
2022/08/05 06:14:00;;;;;;;5.10;2.55;;;;;;;25.07;49.39;96653.19;4917516;29;20506;-76
2022/08/05 06:16:29;;;;;;;5.75;2.95;;;;;;;25.07;49.17;96657.75;4917129;29;20535;-76
2022/08/05 06:19:04;;;;;;;3.80;2.90;;;;;;;25.05;49.46;96655.34;4917372;29;20056;-77
2022/08/05 06:21:35;;;;;;;5.88;2.75;;;;;;;25.05;49.61;96668.69;4917012;29;20075;-76
2022/08/05 06:24:08;;;;;;;4.55;2.95;;;;;;;25.03;49.50;96665.50;4917118;29;20048;-76
2022/08/05 06:26:40;;;;;;;4.53;2.97;;;;;;;25.00;49.91;96679.38;4916914;29;20064;-76
2022/08/05 06:29:19;;;;;;;5.00;3.08;;;;;;;25.00;50.26;96674.06;4917039;29;20146;-76
2022/08/05 06:32:06;;;;;;;8.82;3.25;;;;;;;25.01;50.19;96678.31;4915876;29;20052;-76
2022/08/05 06:34:48;;;;;;;4.37;3.23;;;;;;;25.01;50.37;96674.84;4917148;29;20143;-76
2022/08/05 06:37:20;;;;;;;5.82;2.50;;;;;;;25.02;50.36;96682.59;4916655;29;20444;-76
2022/08/05 06:40:09;;;;;;;6.50;3.13;;;;;;;25.04;50.16;96685.78;4921379;29;20060;-76
2022/08/05 06:42:39;;;;;;;4.40;3.25;;;;;;;25.04;49.86;96677.78;4917217;29;20059;-77
2022/08/05 06:45:08;;;;;;;4.45;3.17;;;;;;;25.06;49.72;96678.31;4916871;29;20104;-76
2022/08/05 06:47:46;;;;;;;6.53;3.15;;;;;;;25.08;49.77;96670.81;4916679;29;20052;-76
2022/08/05 06:50:34;;;;;;;4.43;3.10;;;;;;;25.11;50.14;96650.00;4916499;29;20407;-76
2022/08/05 06:53:02;;;;;;;3.47;2.72;;;;;;;25.17;50.54;96659.59;4916717;29;20072;-76
2022/08/05 06:55:38;;;;;;;3.28;2.40;;;;;;;25.22;49.85;96655.03;4916612;29;20051;-76
2022/08/05 06:58:10;;;;;;;5.45;2.90;;;;;;;25.26;49.68;96666.78;4916639;29;20115;-76
2022/08/05 07:00:58;;;;;;;4.35;2.80;;;;;;;25.30;49.86;96667.03;4916434;29;20056;-76
2022/08/05 07:03:27;;;;;;;4.15;2.67;;;;;;;25.36;49.80;96671.25;4916866;29;20052;-76
2022/08/05 07:06:00;;;;;;;6.03;3.10;;;;;;;25.43;49.84;96673.63;4916556;29;20055;-76
2022/08/05 07:08:32;;;;;;;3.00;2.78;;;;;;;25.51;49.95;96677.59;4916193;29;20099;-76
2022/08/05 07:11:00;;;;;;;6.20;2.65;;;;;;;25.58;49.58;96672.75;4916302;29;20082;-76
2022/08/05 07:19:31;;;;;;;3.05;2.60;;;;;;;25.78;48.60;96680.66;4916422;29;20056;-76
2022/08/05 07:22:21;;;;;;;5.90;2.58;;;;;;;25.86;48.49;96685.38;4916311;29;20052;-76
2022/08/05 07:24:54;;;;;;;3.40;2.20;;;;;;;25.89;48.09;96687.53;4916336;29;20470;-76
2022/08/05 07:27:22;;;;;;;3.05;2.53;;;;;;;25.90;48.25;96685.66;4915987;29;20048;-76
2022/08/05 07:29:57;;;;;;;4.25;2.65;;;;;;;25.96;48.10;96689.13;4934757;29;20644;-77
2022/08/05 07:32:44;;;;;;;4.10;2.38;;;;;;;26.04;48.07;96691.16;4937152;29;20518;-76
2022/08/05 07:35:19;;;;;;;4.38;2.28;;;;;;;26.13;47.90;96689.50;4918675;29;20052;-77
2022/08/05 07:38:07;;;;;;;5.05;2.58;;;;;;;26.20;47.29;96684.63;4917077;29;20052;-76
2022/08/05 07:40:52;;;;;;;3.90;2.65;;;;;;;26.27;47.04;96666.38;4916627;29;20072;-76
2022/08/05 07:43:27;;;;;;;9.98;2.60;;;;;;;26.37;46.86;96659.34;4919610;29;20507;-76
2022/08/05 07:45:56;;;;;;;4.38;2.55;;;;;;;26.45;46.07;96658.75;4920832;29;20194;-77
2022/08/05 07:48:26;;;;;;;4.30;2.58;;;;;;;26.53;45.94;96668.84;4920224;29;20063;-76
2022/08/05 07:51:14;;;;;;;4.45;2.22;;;;;;;26.61;45.78;96673.59;4919679;29;20062;-76
2022/08/05 07:54:02;;;;;;;4.55;3.10;;;;;;;26.73;46.08;96675.09;4919840;29;20048;-77
2022/08/05 07:56:29;;;;;;;6.13;2.63;;;;;;;26.85;45.85;96673.63;4919728;29;20198;-76
2022/08/05 07:59:17;;;;;;;4.57;2.47;;;;;;;26.95;45.40;96670.03;4919981;29;20142;-76
2022/08/05 08:01:51;;;;;;;3.55;2.70;;;;;;;27.02;45.34;96681.19;4919363;29;20074;-77
2022/08/05 08:04:24;;;;;;;2.33;2.00;;;;;;;27.09;45.10;96678.97;4919681;29;20052;-76
2022/08/05 08:07:04;;;;;;;2.05;1.83;;;;;;;27.19;44.47;96687.97;4919802;29;20052;-77
2022/08/05 08:09:34;;;;;;;3.63;2.00;;;;;;;27.27;44.29;96679.31;4919159;29;20139;-77
2022/08/05 08:12:04;;;;;;;2.78;2.30;;;;;;;27.34;44.24;96687.78;4918926;29;20094;-76
2022/08/05 08:14:43;;;;;;;2.55;2.35;;;;;;;27.37;43.76;96689.88;4919632;29;20072;-77
2022/08/05 08:17:14;;;;;;;5.07;2.30;;;;;;;27.40;43.76;96686.66;4919222;29;20107;-77
2022/08/05 08:19:44;;;;;;;6.53;2.47;;;;;;;27.46;44.18;96692.72;4919375;29;20064;-76
2022/08/05 08:22:32;;;;;;;2.35;2.15;;;;;;;27.53;43.54;96704.69;4919426;29;20063;-76
2022/08/05 08:25:00;;;;;;;1.83;1.73;;;;;;;27.61;42.10;96699.75;4919235;29;20094;-77
2022/08/05 08:27:44;;;;;;;3.17;2.10;;;;;;;27.68;40.99;96703.69;4919161;29;20063;-76
2022/08/05 08:30:18;;;;;;;2.90;1.77;;;;;;;27.75;40.69;96706.00;4918577;29;20056;-77
2022/08/05 08:33:09;;;;;;;1.75;1.58;;;;;;;27.86;40.65;96712.06;4919234;29;20562;-77
2022/08/05 08:35:41;;;;;;;3.42;1.50;;;;;;;27.95;40.54;96699.59;4918943;29;20091;-76
2022/08/05 08:38:28;;;;;;;1.70;1.60;;;;;;;28.07;40.01;96701.81;4919151;29;20052;-76
2022/08/05 08:41:05;;;;;;;1.45;1.35;;;;;;;28.15;39.25;96710.00;4918799;29;20435;-77
2022/08/05 08:43:33;;;;;;;1.95;1.40;;;;;;;28.26;39.59;96710.63;4919058;29;20062;-76
2022/08/05 08:46:22;;;;;;;4.75;1.45;;;;;;;28.35;38.47;96708.84;4919142;29;20062;-77
2022/08/05 08:48:54;;;;;;;1.73;1.38;;;;;;;28.41;37.60;96706.09;4919020;29;20079;-78
2022/08/05 08:51:43;;;;;;;3.28;1.45;;;;;;;28.49;37.69;96706.25;4918907;29;20433;-78
2022/08/05 08:54:31;;;;;;;1.67;1.42;;;;;;;28.59;37.64;96710.66;4918198;29;20058;-77
2022/08/05 08:56:59;;;;;;;2.60;1.35;;;;;;;28.65;37.04;96714.03;4920168;29;20084;-77
2022/08/05 08:59:27;;;;;;;3.63;1.13;;;;;;;28.70;36.30;96704.00;4919896;29;20071;-78
2022/08/05 09:02:01;;;;;;;1.65;1.10;;;;;;;28.72;36.04;96717.91;4919127;29;20071;-77
2022/08/05 09:04:30;;;;;;;2.75;1.25;;;;;;;28.71;36.16;96705.59;4919099;29;20091;-78
2022/08/05 09:06:58;;;;;;;2.25;1.42;;;;;;;28.69;35.75;96713.16;4919209;29;20056;-76
2022/08/05 09:09:25;;;;;;;2.83;1.20;;;;;;;28.69;36.04;96702.41;4930586;29;20068;-76
2022/08/05 09:12:02;;;;;;;3.10;1.13;;;;;;;28.72;35.93;96701.81;4933333;29;20508;-77
2022/08/05 09:14:47;;;;;;;1.90;1.10;;;;;;;28.77;36.10;96708.97;4923367;29;20056;-78
2022/08/05 09:17:31;;;;;;;2.78;1.20;;;;;;;28.84;36.55;96700.53;4919456;29;20104;-77
2022/08/05 09:20:11;;;;;;;2.50;1.17;;;;;;;28.91;36.01;96704.44;4918598;29;20408;-76
2022/08/05 09:23:10;;;;;;;2.80;1.20;;;;;;;29.00;35.39;96712.59;4918338;29;20052;-78
2022/08/05 09:25:48;;;;;;;1.58;1.00;;;;;;;29.03;35.41;96708.50;4918161;29;20056;-77
2022/08/05 09:28:29;;;;;;;1.27;1.17;;;;;;;29.07;35.29;96702.25;4918494;29;20177;-77
2022/08/05 09:31:03;;;;;;;1.70;1.30;;;;;;;29.13;34.85;96693.03;4917587;29;20510;-77
2022/08/05 09:33:53;;;;;;;3.80;1.00;;;;;;;29.23;35.07;96699.28;4918037;29;20342;-77
2022/08/05 09:36:22;;;;;;;1.17;1.05;;;;;;;29.30;34.53;96699.66;4917563;29;20565;-78
2022/08/05 09:39:02;;;;;;;2.10;0.90;;;;;;;29.36;34.31;96698.47;4917960;29;20153;-77
2022/08/05 09:41:56;;;;;;;2.60;1.10;;;;;;;29.40;34.01;96691.41;4917541;29;20063;-78
2022/08/05 09:44:36;;;;;;;1.20;1.10;;;;;;;29.48;33.99;96693.38;4917984;29;20056;-78
2022/08/05 09:47:08;;;;;;;1.10;1.00;;;;;;;29.54;33.46;96681.44;4919322;29;20072;-77
2022/08/05 09:49:45;;;;;;;1.23;1.00;;;;;;;29.59;33.20;96691.28;4917674;29;20487;-78
2022/08/05 09:52:31;;;;;;;1.15;1.00;;;;;;;29.64;33.03;96672.34;4919337;29;20062;-79
2022/08/05 09:55:01;;;;;;;2.35;1.20;;;;;;;29.69;33.13;96674.94;4919356;29;20507;-78
2022/08/05 09:57:49;;;;;;;1.20;1.10;;;;;;;29.75;33.06;96670.25;4919827;29;20059;-78
2022/08/05 10:00:25;;;;;;;1.83;1.02;;;;;;;29.79;32.86;96668.53;4918839;29;20503;-77
2022/08/05 10:02:54;;;;;;;1.73;1.00;;;;;;;29.87;33.32;96667.81;4919559;29;20251;-78
2022/08/05 10:05:27;;;;;;;1.48;1.10;;;;;;;29.94;32.62;96660.13;4919627;29;20495;-78
2022/08/05 10:08:02;;;;;;;0.93;0.90;;;;;;;30.02;32.60;96657.78;4919288;29;20059;-78
2022/08/05 10:10:50;;;;;;;2.28;0.93;;;;;;;30.07;32.53;96663.84;4918569;29;20052;-78
2022/08/05 10:13:29;;;;;;;1.15;0.95;;;;;;;30.11;32.04;96659.44;4919161;29;20052;-78
2022/08/05 10:16:32;;;;;;;2.55;1.00;;;;;;;30.14;31.90;96655.34;4919536;29;20076;-78
2022/08/05 10:19:04;;;;;;;1.10;1.00;;;;;;;30.15;31.98;96644.28;4917559;29;20518;-78
2022/08/05 10:21:35;;;;;;;;;;;;;;;30.18;32.64;96646.34;4918996;29;20061;-79
2022/08/05 10:24:12;;;;;;;3.28;1.73;;;;;;;30.13;32.49;96640.28;4919328;29;20050;-78
2022/08/05 10:26:41;;;;;;;1.60;0.88;;;;;;;30.10;32.17;96640.91;4918762;29;20058;-78
2022/08/05 10:29:19;;;;;;;1.75;0.90;;;;;;;30.10;32.27;96630.16;4919128;29;20052;-78
2022/08/05 10:32:07;;;;;;;1.33;1.15;;;;;;;30.10;31.94;96632.84;4923428;29;20446;-78
2022/08/05 10:34:57;;;;;;;0.95;0.80;;;;;;;30.09;32.11;96628.59;4923312;29;20056;-78
2022/08/05 10:37:30;;;;;;;2.38;1.10;;;;;;;30.08;32.26;96632.34;4922943;29;20111;-79
2022/08/05 10:40:21;;;;;;;0.90;0.90;;;;;;;30.08;31.85;96632.34;4921782;29;20048;-77
2022/08/05 10:43:01;;;;;;;2.22;1.30;;;;;;;30.05;31.94;96627.59;4922374;29;20071;-77
2022/08/05 10:45:32;;;;;;;1.80;1.33;;;;;;;30.04;32.12;96639.44;4930380;29;20047;-78
2022/08/05 10:48:32;;;;;;;1.00;1.00;;;;;;;30.05;32.02;96643.75;4936580;29;20036;-78
2022/08/05 10:51:21;;;;;;;3.75;1.17;;;;;;;30.06;32.30;96639.94;4919570;29;20052;-79
2022/08/05 10:53:57;;;;;;;2.38;1.13;;;;;;;30.10;32.23;96647.09;4918665;29;20056;-77
2022/08/05 10:59:20;;;;;;;;;;;;;;;30.26;32.50;96644.81;5151305;23;20036;-84
2022/08/05 13:22:49;;;;;;;1.13;1.02;;;;;;;32.44;28.12;96570.41;4941991;29;20092;-83
2022/08/05 13:25:20;;;;;;;1.65;1.30;;;;;;;32.46;27.44;96574.72;4943259;29;20044;-83
2022/08/05 13:28:16;;;;;;;2.83;1.20;;;;;;;32.47;27.95;96565.50;4943349;29;20056;-83
2022/08/05 13:30:47;;;;;;;1.27;1.17;;;;;;;32.48;27.87;96559.78;5115275;23;20035;-83
2022/08/05 13:36:59;;;;;;;2.67;1.08;;;;;;;32.48;27.68;96553.59;4941430;29;20048;-84
2022/08/05 13:39:30;;;;;;;2.10;1.25;;;;;;;32.48;28.06;96550.91;4942989;29;20032;-84
2022/08/05 13:42:25;;;;;;;1.23;1.10;;;;;;;32.48;27.76;96540.09;4942708;29;20040;-84
2022/08/05 13:45:00;;;;;;;1.20;0.90;;;;;;;32.48;28.16;96545.50;4942921;29;20052;-84
2022/08/05 13:47:40;;;;;;;1.55;1.30;;;;;;;32.49;28.17;96549.75;4942890;29;20040;-84
2022/08/05 15:22:09;;;;;;;5.25;1.60;;;;;;;32.17;29.04;96533.88;4932633;29;20155;-77
2022/08/05 15:24:36;;;;;;;1.45;1.35;;;;;;;32.16;29.46;96531.47;4937344;29;20083;-78
2022/08/05 15:27:06;;;;;;;1.40;1.30;;;;;;;32.14;29.13;96536.41;4937300;29;20054;-77
2022/08/05 15:29:35;;;;;;;1.55;1.17;;;;;;;32.12;29.21;96522.44;4942358;29;20078;-77
2022/08/05 15:32:08;;;;;;;1.65;1.33;;;;;;;32.09;29.19;96520.41;4936236;29;20462;-76
2022/08/05 15:34:36;;;;;;;2.08;1.48;;;;;;;32.06;29.66;96518.38;4938421;29;20458;-75
2022/08/05 15:37:04;;;;;;;1.50;1.40;;;;;;;32.01;29.54;96517.41;4940248;29;20048;-75
2022/08/05 15:39:43;;;;;;;2.03;1.55;;;;;;;31.98;31.33;96512.66;4937978;29;20528;-76
2022/08/05 15:42:32;;;;;;;2.03;1.45;;;;;;;31.94;30.21;96511.69;4940373;29;20055;-75
2022/08/05 15:45:20;;;;;;;2.53;1.40;;;;;;;31.89;30.38;96514.56;4926771;29;20054;-76
2022/08/05 15:48:05;;;;;;;2.70;1.67;;;;;;;31.84;30.07;96522.84;4946363;29;20418;-76
2022/08/05 15:50:33;;;;;;;1.58;1.40;;;;;;;31.80;30.75;96519.19;4944891;29;20051;-79
2022/08/05 15:53:01;;;;;;;2.30;1.83;;;;;;;31.78;31.05;96524.13;4936480;29;20058;-75
2022/08/05 15:55:34;;;;;;;1.53;1.43;;;;;;;31.76;30.89;96502.06;4936067;29;20079;-75
2022/08/05 15:58:21;;;;;;;3.00;1.70;;;;;;;31.72;31.59;96499.22;4916487;29;20499;-75
2022/08/05 16:00:49;;;;;;;2.22;1.42;;;;;;;31.69;31.68;96521.44;4928941;29;20048;-75
2022/08/05 16:03:37;;;;;;;1.95;1.33;;;;;;;31.65;30.92;96533.19;4936312;29;20392;-75
2022/08/05 16:06:08;;;;;;;1.92;1.63;;;;;;;31.59;31.06;96533.34;4938998;29;20058;-75
2022/08/05 16:08:38;;;;;;;1.77;1.33;;;;;;;31.53;31.43;96526.53;4939183;29;20174;-75
2022/08/05 16:11:09;;;;;;;1.80;1.23;;;;;;;31.47;30.79;96525.13;4937964;29;20054;-74
2022/08/05 16:13:37;;;;;;;1.33;1.17;;;;;;;31.41;31.07;96515.56;4944034;29;20425;-74
2022/08/05 16:16:05;;;;;;;1.65;1.30;;;;;;;31.36;30.78;96518.44;4938622;29;20048;-75
2022/08/05 16:18:37;;;;;;;2.00;1.15;;;;;;;31.30;30.68;96519.72;4938230;29;20061;-75
2022/08/05 16:21:19;;;;;;;4.70;1.35;;;;;;;31.25;32.03;96517.16;4938265;29;20126;-74
2022/08/05 16:24:07;;;;;;;1.73;1.48;;;;;;;31.21;31.09;96522.41;4937565;29;20055;-75
2022/08/05 16:26:57;;;;;;;3.38;1.92;;;;;;;31.18;31.54;96526.53;4938310;29;20059;-75